Wetterdaten: Woche 25.09.17 - 01.10.17 (KW39)
Datum Zeit Temp. A. Pool Temp. Feuchte A. Luftdruck Regen Wind Richtung Sonnenschein ET UV Solar Taupunkt Windchill Windben Empfang
25.09.2017 00:00 10,6 C 13,3 C 95 % 1020,4 hPa 0,0 l/m 0,1 km/h (0 Bft) O 0,00 h 0,000 mm 0,0 UV-I 0 W/m 9,8 C 10,6 C 0,3 km/h (0 Bft) 95,50 %
25.09.2017 01:00 10,6 C 13,3 C 95 % 1020,1 hPa 0,0 l/m 1,6 km/h (1 Bft) O 0,00 h 0,000 mm 0,0 UV-I 0 W/m 9,9 C 10,6 C 2,9 km/h (1 Bft) 96,46 %
25.09.2017 02:00 9,5 C 13,3 C 95 % 1019,8 hPa 0,0 l/m 0,6 km/h (0 Bft) O 0,00 h 0,000 mm 0,0 UV-I 0 W/m 8,8 C 9,5 C 1,1 km/h (1 Bft) 97,04 %
25.09.2017 03:00 8,4 C 13,3 C 96 % 1019,6 hPa 0,0 l/m 1,0 km/h (0 Bft) O 0,00 h 0,000 mm 0,0 UV-I 0 W/m 7,8 C 8,4 C 2,0 km/h (1 Bft) 97,73 %
25.09.2017 04:00 9,0 C 13,2 C 97 % 1019,4 hPa 0,0 l/m 1,3 km/h (1 Bft) O 0,00 h 0,000 mm 0,0 UV-I 0 W/m 8,5 C 9,0 C 3,0 km/h (1 Bft) 99,21 %
25.09.2017 05:00 10,0 C 12,8 C 97 % 1019,4 hPa 0,0 l/m 1,2 km/h (1 Bft) SO 0,00 h 0,000 mm 0,0 UV-I 0 W/m 9,6 C 10,0 C 3,1 km/h (1 Bft) 95,64 %
25.09.2017 06:00 10,4 C 12,8 C 97 % 1019,3 hPa 0,0 l/m 2,9 km/h (1 Bft) SO 0,00 h 0,000 mm 0,0 UV-I 5 W/m 9,9 C 10,4 C 5,7 km/h (1 Bft) 98,62 %
25.09.2017 07:00 10,6 C 12,8 C 97 % 1019,7 hPa 0,0 l/m 2,1 km/h (1 Bft) SO 0,00 h 0,000 mm 0,0 UV-I 19 W/m 10,1 C 10,6 C 4,3 km/h (1 Bft) 98,26 %
25.09.2017 08:00 10,2 C 12,8 C 97 % 1019,8 hPa 0,0 l/m 2,2 km/h (1 Bft) S-SW 0,00 h 0,000 mm 0,0 UV-I 74 W/m 9,8 C 10,2 C 4,4 km/h (1 Bft) 99,17 %
25.09.2017 09:00 10,4 C 12,8 C 97 % 1019,9 hPa 0,0 l/m 2,2 km/h (1 Bft) W 0,00 h 0,025 mm 0,5 UV-I 103 W/m 9,9 C 10,4 C 4,1 km/h (1 Bft) 96,14 %
25.09.2017 10:00 11,3 C 12,8 C 95 % 1020,1 hPa 0,0 l/m 0,8 km/h (0 Bft) O-NO 0,00 h 0,051 mm 0,5 UV-I 133 W/m 10,5 C 11,3 C 2,1 km/h (1 Bft) 99,56 %
25.09.2017 11:00 12,2 C 12,9 C 93 % 1020,1 hPa 0,0 l/m 3,6 km/h (1 Bft) O-SO 0,00 h 0,076 mm 0,8 UV-I 176 W/m 11,0 C 12,1 C 7,0 km/h (2 Bft) 98,29 %
25.09.2017 12:00 13,1 C 13,3 C 90 % 1019,9 hPa 0,0 l/m 4,9 km/h (1 Bft) O-NO 0,03 h 0,077 mm 1,2 UV-I 245 W/m 11,4 C 13,0 C 8,9 km/h (2 Bft) 99,19 %
25.09.2017 13:00 15,3 C 13,3 C 84 % 1019,5 hPa 0,0 l/m 4,4 km/h (1 Bft) NO 0,90 h 0,127 mm 2,6 UV-I 596 W/m 12,5 C 15,2 C 7,8 km/h (2 Bft) 96,04 %
25.09.2017 14:00 17,3 C 13,3 C 74 % 1019,1 hPa 0,0 l/m 8,2 km/h (2 Bft) O-NO 0,90 h 0,330 mm 2,2 UV-I 549 W/m 12,7 C 16,4 C 13,5 km/h (3 Bft) 97,22 %
25.09.2017 15:00 18,2 C 13,3 C 67 % 1018,7 hPa 0,0 l/m 11,8 km/h (2 Bft) NO 1,00 h 0,330 mm 1,6 UV-I 471 W/m 11,9 C 16,0 C 18,7 km/h (3 Bft) 97,45 %
25.09.2017 16:00 17,9 C 13,3 C 66 % 1018,5 hPa 0,0 l/m 11,1 km/h (2 Bft) O-NO 0,67 h 0,305 mm 0,7 UV-I 248 W/m 11,5 C 16,0 C 17,8 km/h (3 Bft) 99,70 %
25.09.2017 17:00 17,1 C 13,3 C 71 % 1018,7 hPa 0,0 l/m 11,2 km/h (2 Bft) O-NO 0,07 h 0,178 mm 0,1 UV-I 93 W/m 11,9 C 15,0 C 17,2 km/h (3 Bft) 98,14 %
25.09.2017 18:00 16,1 C 13,3 C 76 % 1018,8 hPa 0,0 l/m 10,5 km/h (2 Bft) O-NO 0,30 h 0,101 mm 0,0 UV-I 38 W/m 11,9 C 14,2 C 16,3 km/h (3 Bft) 99,35 %
25.09.2017 19:00 15,4 C 13,3 C 78 % 1018,8 hPa 0,0 l/m 13,9 km/h (3 Bft) O-NO 0,00 h 0,051 mm 0,0 UV-I 4 W/m 11,5 C 12,1 C 20,7 km/h (4 Bft) 95,87 %
25.09.2017 20:00 14,8 C 13,3 C 79 % 1019,0 hPa 0,0 l/m 14,1 km/h (3 Bft) O-NO 0,00 h 0,051 mm 0,0 UV-I 0 W/m 11,2 C 11,2 C 20,3 km/h (4 Bft) 99,36 %
25.09.2017 21:00 14,1 C 13,3 C 82 % 1019,1 hPa 0,0 l/m 14,5 km/h (3 Bft) O-NO 0,00 h 0,051 mm 0,0 UV-I 0 W/m 11,0 C 10,3 C 21,4 km/h (4 Bft) 98,08 %
25.09.2017 22:00 13,4 C 13,3 C 83 % 1019,3 hPa 0,0 l/m 11,8 km/h (2 Bft) O-NO 0,00 h 0,025 mm 0,0 UV-I 0 W/m 10,6 C 10,6 C 18,9 km/h (3 Bft) 99,32 %
25.09.2017 23:00 12,9 C 13,3 C 84 % 1019,3 hPa 0,0 l/m 11,8 km/h (2 Bft) O-NO 0,00 h 0,025 mm 0,0 UV-I 0 W/m 10,3 C 10,0 C 18,0 km/h (3 Bft) 95,88 %
26.09.2017 00:00 12,5 C 13,3 C 85 % 1019,3 hPa 0,0 l/m 10,9 km/h (2 Bft) O-NO 0,00 h 0,000 mm 0,0 UV-I 0 W/m 10,1 C 10,0 C 16,6 km/h (3 Bft) 99,25 %
26.09.2017 01:00 12,1 C 13,3 C 86 % 1019,4 hPa 0,0 l/m 9,1 km/h (2 Bft) O-NO 0,00 h 0,025 mm 0,0 UV-I 0 W/m 9,7 C 10,5 C 14,5 km/h (3 Bft) 98,26 %
26.09.2017 02:00 11,6 C 13,3 C 87 % 1019,4 hPa 0,0 l/m 5,6 km/h (1 Bft) O-NO 0,00 h 0,026 mm 0,0 UV-I 0 W/m 9,6 C 11,5 C 8,5 km/h (2 Bft) 99,69 %
26.09.2017 03:00 11,2 C 13,3 C 88 % 1019,2 hPa 0,0 l/m 6,0 km/h (2 Bft) O-NO 0,00 h 0,000 mm 0,0 UV-I 0 W/m 9,3 C 11,1 C 9,2 km/h (2 Bft) 95,23 %
26.09.2017 04:00 11,0 C 13,3 C 88 % 1019,2 hPa 0,0 l/m 6,1 km/h (2 Bft) O-NO 0,00 h 0,000 mm 0,0 UV-I 0 W/m 9,2 C 10,7 C 9,5 km/h (2 Bft) 99,66 %
26.09.2017 05:00 10,8 C 13,3 C 89 % 1019,6 hPa 0,0 l/m 1,5 km/h (1 Bft) O-NO 0,00 h 0,000 mm 0,0 UV-I 0 W/m 9,1 C 10,8 C 2,9 km/h (1 Bft) 98,05 %
26.09.2017 06:00 10,5 C 13,3 C 90 % 1019,8 hPa 0,0 l/m 0,5 km/h (0 Bft) NO 0,00 h 0,000 mm 0,0 UV-I 5 W/m 9,0 C 10,5 C 1,0 km/h (0 Bft) 98,31 %
26.09.2017 07:00 9,9 C 13,3 C 92 % 1020,2 hPa 0,0 l/m 1,1 km/h (1 Bft) NO 0,07 h 0,000 mm 0,0 UV-I 25 W/m 8,6 C 9,9 C 1,9 km/h (1 Bft) 96,87 %
26.09.2017 08:00 9,9 C 13,3 C 94 % 1020,6 hPa 0,0 l/m 0,7 km/h (0 Bft) S-SW 0,00 h 0,025 mm 0,0 UV-I 95 W/m 9,0 C 9,9 C 2,0 km/h (1 Bft) 99,21 %
26.09.2017 09:00 10,7 C 13,3 C 93 % 1021,2 hPa 0,0 l/m 1,5 km/h (1 Bft) S 0,00 h 0,051 mm 0,7 UV-I 108 W/m 9,6 C 10,7 C 2,9 km/h (1 Bft) 98,05 %
26.09.2017 10:00 11,7 C 13,3 C 90 % 1021,6 hPa 0,0 l/m 2,2 km/h (1 Bft) O-NO 0,00 h 0,051 mm 1,0 UV-I 190 W/m 10,1 C 11,7 C 4,0 km/h (1 Bft) 97,91 %
26.09.2017 11:00 13,2 C 13,3 C 87 % 1021,6 hPa 0,0 l/m 3,2 km/h (1 Bft) O-NO 0,40 h 0,101 mm 1,5 UV-I 325 W/m 11,1 C 13,1 C 5,7 km/h (1 Bft) 97,30 %
26.09.2017 12:00 15,0 C 13,3 C 81 % 1021,5 hPa 0,0 l/m 9,5 km/h (2 Bft) O-NO 0,30 h 0,178 mm 1,8 UV-I 314 W/m 11,7 C 13,4 C 14,6 km/h (3 Bft) 99,01 %
26.09.2017 13:00 15,1 C 13,3 C 82 % 1021,3 hPa 0,0 l/m 11,4 km/h (2 Bft) NO 0,00 h 0,178 mm 1,4 UV-I 252 W/m 11,9 C 12,7 C 17,2 km/h (3 Bft) 98,31 %
26.09.2017 14:00 16,5 C 13,3 C 78 % 1020,9 hPa 0,0 l/m 11,8 km/h (2 Bft) O-NO 0,93 h 0,152 mm 2,1 UV-I 481 W/m 12,6 C 14,1 C 17,6 km/h (3 Bft) 99,39 %
26.09.2017 15:00 16,7 C 13,3 C 78 % 1020,8 hPa 0,0 l/m 14,1 km/h (3 Bft) O-NO 0,17 h 0,305 mm 1,1 UV-I 247 W/m 12,9 C 13,5 C 20,2 km/h (4 Bft) 96,70 %
26.09.2017 16:00 16,4 C 13,3 C 80 % 1020,8 hPa 0,0 l/m 17,5 km/h (3 Bft) O-NO 0,23 h 0,178 mm 0,6 UV-I 187 W/m 13,0 C 12,2 C 25,1 km/h (4 Bft) 98,08 %
26.09.2017 17:00 16,0 C 13,3 C 82 % 1020,8 hPa 0,0 l/m 15,9 km/h (3 Bft) O-NO 0,00 h 0,152 mm 0,0 UV-I 76 W/m 13,0 C 12,3 C 23,0 km/h (4 Bft) 98,65 %
26.09.2017 18:00 15,6 C 13,3 C 84 % 1020,9 hPa 0,0 l/m 14,1 km/h (3 Bft) O-NO 0,57 h 0,077 mm 0,0 UV-I 34 W/m 13,0 C 12,3 C 21,0 km/h (4 Bft) 99,06 %
26.09.2017 19:00 15,1 C 13,3 C 84 % 1021,2 hPa 0,0 l/m 16,6 km/h (3 Bft) O-NO 0,00 h 0,050 mm 0,0 UV-I 4 W/m 12,4 C 10,9 C 24,3 km/h (4 Bft) 97,27 %
26.09.2017 20:00 14,7 C 13,3 C 85 % 1021,6 hPa 0,0 l/m 15,6 km/h (3 Bft) O-NO 0,00 h 0,026 mm 0,0 UV-I 0 W/m 12,2 C 10,7 C 22,8 km/h (4 Bft) 97,21 %
26.09.2017 21:00 14,8 C 13,3 C 82 % 1021,8 hPa 0,0 l/m 17,2 km/h (3 Bft) O-NO 0,00 h 0,025 mm 0,0 UV-I 0 W/m 11,8 C 10,3 C 23,8 km/h (4 Bft) 98,88 %
26.09.2017 22:00 14,7 C 13,3 C 82 % 1022,0 hPa 0,0 l/m 15,7 km/h (3 Bft) O-NO 0,00 h 0,051 mm 0,0 UV-I 0 W/m 11,7 C 10,6 C 22,4 km/h (4 Bft) 98,79 %
26.09.2017 23:00 13,9 C 13,3 C 86 % 1022,1 hPa 0,0 l/m 11,3 km/h (2 Bft) O-NO 0,00 h 0,025 mm 0,0 UV-I 0 W/m 11,6 C 11,4 C 17,7 km/h (3 Bft) 98,13 %
27.09.2017 00:00 13,2 C 13,3 C 88 % 1022,0 hPa 0,0 l/m 10,2 km/h (2 Bft) O-NO 0,00 h 0,000 mm 0,0 UV-I 0 W/m 11,2 C 11,0 C 15,9 km/h (3 Bft) 97,09 %
27.09.2017 01:00 12,7 C 13,3 C 90 % 1021,9 hPa 0,0 l/m 10,9 km/h (2 Bft) O-NO 0,00 h 0,025 mm 0,0 UV-I 0 W/m 11,0 C 10,2 C 16,8 km/h (3 Bft) 98,46 %
27.09.2017 02:00 12,4 C 13,3 C 91 % 1021,7 hPa 0,0 l/m 7,3 km/h (2 Bft) O-NO 0,00 h 0,026 mm 0,0 UV-I 0 W/m 10,9 C 11,6 C 11,3 km/h (2 Bft) 99,11 %
27.09.2017 03:00 12,7 C 13,3 C 91 % 1021,6 hPa 0,0 l/m 6,3 km/h (2 Bft) O-NO 0,00 h 0,000 mm 0,0 UV-I 0 W/m 11,2 C 12,4 C 9,7 km/h (2 Bft) 96,92 %
27.09.2017 04:00 12,7 C 13,3 C 90 % 1021,6 hPa 0,0 l/m 6,6 km/h (2 Bft) O-NO 0,00 h 0,000 mm 0,0 UV-I 0 W/m 11,2 C 12,3 C 10,6 km/h (2 Bft) 97,75 %
27.09.2017 05:00 12,6 C 13,3 C 91 % 1021,7 hPa 0,0 l/m 3,2 km/h (1 Bft) O-NO 0,00 h 0,000 mm 0,0 UV-I 0 W/m 11,1 C 12,6 C 5,2 km/h (1 Bft) 98,20 %
27.09.2017 06:00 11,9 C 13,3 C 93 % 1022,0 hPa 0,0 l/m 0,6 km/h (0 Bft) O-NO 0,00 h 0,000 mm 0,0 UV-I 5 W/m 10,8 C 11,9 C 1,5 km/h (1 Bft) 99,13 %
27.09.2017 07:00 11,1 C 13,3 C 94 % 1022,4 hPa 0,0 l/m 2,3 km/h (1 Bft) SW 0,57 h 0,000 mm 0,0 UV-I 48 W/m 10,2 C 11,1 C 3,9 km/h (1 Bft) 97,04 %
27.09.2017 08:00 11,8 C 13,3 C 93 % 1022,6 hPa 0,0 l/m 1,4 km/h (1 Bft) SW 0,77 h 0,025 mm 0,3 UV-I 145 W/m 10,6 C 11,8 C 3,1 km/h (1 Bft) 98,31 %
27.09.2017 09:00 13,5 C 13,3 C 89 % 1022,8 hPa 0,0 l/m 1,2 km/h (1 Bft) SW 0,67 h 0,076 mm 0,8 UV-I 277 W/m 11,7 C 13,5 C 3,1 km/h (1 Bft) 98,99 %
27.09.2017 10:00 15,4 C 13,3 C 84 % 1022,9 hPa 0,0 l/m 4,3 km/h (1 Bft) NO 0,90 h 0,153 mm 1,5 UV-I 373 W/m 12,6 C 15,3 C 7,2 km/h (2 Bft) 98,23 %
27.09.2017 11:00 16,1 C 13,3 C 81 % 1022,8 hPa 0,0 l/m 2,8 km/h (1 Bft) NO 0,63 h 0,203 mm 1,9 UV-I 352 W/m 12,8 C 16,1 C 5,2 km/h (1 Bft) 99,27 %
27.09.2017 12:00 17,4 C 13,3 C 78 % 1022,6 hPa 0,0 l/m 2,2 km/h (1 Bft) O-SO 0,47 h 0,203 mm 2,4 UV-I 394 W/m 13,6 C 17,4 C 4,5 km/h (1 Bft) 98,36 %
27.09.2017 13:00 19,0 C 13,3 C 73 % 1022,4 hPa 0,0 l/m 9,3 km/h (2 Bft) O-NO 0,70 h 0,229 mm 2,4 UV-I 443 W/m 14,1 C 17,8 C 14,4 km/h (3 Bft) 98,39 %
27.09.2017 14:00 19,1 C 13,3 C 72 % 1022,1 hPa 0,0 l/m 11,6 km/h (2 Bft) O-NO 0,53 h 0,279 mm 1,8 UV-I 330 W/m 14,0 C 17,2 C 17,2 km/h (3 Bft) 96,29 %
27.09.2017 15:00 18,4 C 13,3 C 76 % 1022,0 hPa 0,0 l/m 10,2 km/h (2 Bft) O-NO 0,00 h 0,229 mm 0,9 UV-I 130 W/m 14,1 C 16,9 C 15,6 km/h (3 Bft) 99,74 %
27.09.2017 16:00 19,3 C 13,3 C 74 % 1021,9 hPa 0,0 l/m 11,8 km/h (2 Bft) O-NO 0,83 h 0,101 mm 0,8 UV-I 332 W/m 14,6 C 17,4 C 18,2 km/h (3 Bft) 98,00 %
27.09.2017 17:00 18,8 C 13,3 C 78 % 1021,7 hPa 0,0 l/m 13,0 km/h (3 Bft) O-NO 0,67 h 0,229 mm 0,0 UV-I 135 W/m 14,8 C 16,4 C 19,5 km/h (3 Bft) 99,58 %
27.09.2017 18:00 17,9 C 13,3 C 82 % 1021,7 hPa 0,0 l/m 10,1 km/h (2 Bft) O-NO 0,70 h 0,127 mm 0,0 UV-I 42 W/m 14,7 C 16,3 C 15,6 km/h (3 Bft) 96,17 %
27.09.2017 19:00 16,6 C 13,3 C 86 % 1021,9 hPa 0,0 l/m 6,1 km/h (2 Bft) NO 0,00 h 0,051 mm 0,0 UV-I 5 W/m 14,2 C 16,3 C 9,6 km/h (2 Bft) 99,08 %
27.09.2017 20:00 15,8 C 13,3 C 87 % 1022,2 hPa 0,0 l/m 7,9 km/h (2 Bft) O-NO 0,00 h 0,025 mm 0,0 UV-I 0 W/m 13,6 C 15,0 C 12,3 km/h (3 Bft) 98,29 %
27.09.2017 21:00 14,9 C 13,3 C 89 % 1022,4 hPa 0,0 l/m 6,9 km/h (2 Bft) O-NO 0,00 h 0,026 mm 0,0 UV-I 0 W/m 13,1 C 14,5 C 10,9 km/h (2 Bft) 99,42 %
27.09.2017 22:00 13,5 C 13,3 C 92 % 1022,6 hPa 0,0 l/m 1,7 km/h (1 Bft) NO 0,00 h 0,025 mm 0,0 UV-I 0 W/m 12,1 C 13,5 C 3,2 km/h (1 Bft) 96,02 %
27.09.2017 23:00 12,0 C 13,3 C 94 % 1022,8 hPa 0,0 l/m 0,6 km/h (0 Bft) NO 0,00 h 0,000 mm 0,0 UV-I 0 W/m 11,1 C 12,0 C 1,2 km/h (1 Bft) 99,11 %
28.09.2017 00:00 10,9 C 13,3 C 96 % 1023,1 hPa 0,0 l/m 1,2 km/h (1 Bft) SW 0,00 h 0,000 mm 0,0 UV-I 0 W/m 10,3 C 10,9 C 2,1 km/h (1 Bft) 98,09 %
28.09.2017 01:00 10,1 C 13,3 C 96 % 1023,4 hPa 0,0 l/m 1,1 km/h (1 Bft) SW 0,00 h 0,000 mm 0,0 UV-I 0 W/m 9,5 C 10,1 C 2,1 km/h (1 Bft) 98,15 %
28.09.2017 02:00 9,8 C 13,3 C 96 % 1023,7 hPa 0,0 l/m 2,8 km/h (1 Bft) S-SW 0,00 h 0,000 mm 0,0 UV-I 0 W/m 9,2 C 9,8 C 4,5 km/h (1 Bft) 97,88 %
28.09.2017 03:00 10,2 C 13,3 C 97 % 1023,7 hPa 0,0 l/m 3,4 km/h (1 Bft) SW 0,00 h 0,000 mm 0,0 UV-I 0 W/m 9,7 C 10,2 C 5,3 km/h (1 Bft) 98,93 %
28.09.2017 04:00 10,6 C 13,3 C 97 % 1023,7 hPa 0,0 l/m 1,3 km/h (1 Bft) SW 0,00 h 0,000 mm 0,0 UV-I 0 W/m 10,2 C 10,6 C 3,2 km/h (1 Bft) 98,80 %
28.09.2017 05:00 10,3 C 13,3 C 97 % 1023,8 hPa 0,2 l/m 3,2 km/h (1 Bft) SW 0,00 h 0,000 mm 0,0 UV-I 0 W/m 9,9 C 10,3 C 5,0 km/h (1 Bft) 96,44 %
28.09.2017 06:00 9,6 C 13,3 C 97 % 1024,1 hPa 0,0 l/m 2,3 km/h (1 Bft) S 0,00 h 0,000 mm 0,0 UV-I 5 W/m 9,2 C 9,6 C 4,5 km/h (1 Bft) 98,78 %
28.09.2017 07:00 9,5 C 13,3 C 97 % 1024,6 hPa 0,0 l/m 1,5 km/h (1 Bft) SW 0,00 h 0,000 mm 0,0 UV-I 20 W/m 9,1 C 9,5 C 3,1 km/h (1 Bft) 98,85 %
28.09.2017 08:00 10,0 C 13,3 C 98 % 1025,2 hPa 0,0 l/m 0,7 km/h (0 Bft) SW 0,00 h 0,000 mm 0,0 UV-I 83 W/m 9,7 C 10,0 C 1,7 km/h (1 Bft) 97,20 %
28.09.2017 09:00 10,8 C 13,3 C 98 % 1025,6 hPa 0,0 l/m 1,4 km/h (1 Bft) SW 0,03 h 0,051 mm 0,6 UV-I 170 W/m 10,5 C 10,8 C 2,8 km/h (1 Bft) 97,95 %
28.09.2017 10:00 11,7 C 13,3 C 98 % 1025,8 hPa 0,0 l/m 1,3 km/h (1 Bft) N-NO 0,00 h 0,076 mm 0,9 UV-I 214 W/m 11,4 C 11,7 C 3,4 km/h (1 Bft) 98,72 %
28.09.2017 11:00 12,6 C 13,3 C 97 % 1025,7 hPa 0,0 l/m 3,2 km/h (1 Bft) NO 0,07 h 0,102 mm 1,2 UV-I 257 W/m 12,2 C 12,6 C 6,5 km/h (2 Bft) 98,96 %
28.09.2017 12:00 15,7 C 13,3 C 86 % 1025,4 hPa 0,0 l/m 5,2 km/h (1 Bft) O-NO 1,00 h 0,152 mm 3,0 UV-I 628 W/m 13,4 C 15,6 C 8,7 km/h (2 Bft) 98,59 %
28.09.2017 13:00 18,1 C 13,3 C 73 % 1025,0 hPa 0,0 l/m 4,6 km/h (1 Bft) NO 1,00 h 0,330 mm 3,0 UV-I 622 W/m 13,2 C 18,1 C 8,1 km/h (2 Bft) 97,00 %
28.09.2017 14:00 19,5 C 13,3 C 67 % 1024,6 hPa 0,0 l/m 6,1 km/h (2 Bft) O-NO 1,00 h 0,356 mm 2,4 UV-I 517 W/m 13,2 C 19,2 C 10,2 km/h (2 Bft) 95,82 %
28.09.2017 15:00 19,9 C 13,3 C 65 % 1024,5 hPa 0,0 l/m 5,2 km/h (1 Bft) O-NO 0,93 h 0,330 mm 1,5 UV-I 376 W/m 13,2 C 19,9 C 8,3 km/h (2 Bft) 99,59 %
28.09.2017 16:00 19,3 C 13,7 C 68 % 1024,4 hPa 0,0 l/m 2,5 km/h (1 Bft) O-NO 0,60 h 0,229 mm 0,7 UV-I 214 W/m 13,2 C 19,3 C 4,8 km/h (1 Bft) 97,93 %
28.09.2017 17:00 18,8 C 13,9 C 72 % 1024,4 hPa 0,0 l/m 2,1 km/h (1 Bft) NO 0,20 h 0,127 mm 0,4 UV-I 98 W/m 13,7 C 18,8 C 3,8 km/h (1 Bft) 99,42 %
28.09.2017 18:00 16,5 C 13,9 C 82 % 1024,5 hPa 0,0 l/m 2,3 km/h (1 Bft) NO 0,03 h 0,076 mm 0,0 UV-I 17 W/m 13,3 C 16,5 C 3,9 km/h (1 Bft) 97,66 %
28.09.2017 19:00 14,8 C 13,9 C 88 % 1024,6 hPa 0,0 l/m 2,0 km/h (1 Bft) NO 0,00 h 0,025 mm 0,0 UV-I 0 W/m 12,8 C 14,8 C 3,4 km/h (1 Bft) 97,17 %
28.09.2017 20:00 15,7 C 13,9 C 83 % 1024,9 hPa 0,0 l/m 4,4 km/h (1 Bft) O 0,00 h 0,000 mm 0,0 UV-I 0 W/m 12,8 C 15,7 C 6,5 km/h (2 Bft) 98,67 %
28.09.2017 21:00 14,8 C 13,9 C 86 % 1025,1 hPa 0,0 l/m 2,7 km/h (1 Bft) O 0,00 h 0,026 mm 0,0 UV-I 0 W/m 12,5 C 14,8 C 4,2 km/h (1 Bft) 98,95 %
28.09.2017 22:00 14,3 C 13,9 C 83 % 1025,0 hPa 0,0 l/m 7,5 km/h (2 Bft) O 0,00 h 0,000 mm 0,0 UV-I 0 W/m 11,5 C 13,6 C 12,2 km/h (2 Bft) 98,05 %
28.09.2017 23:00 13,5 C 13,9 C 82 % 1024,9 hPa 0,0 l/m 8,0 km/h (2 Bft) O-NO 0,00 h 0,025 mm 0,0 UV-I 0 W/m 10,6 C 12,5 C 12,5 km/h (3 Bft) 96,83 %
29.09.2017 00:00 12,4 C 13,9 C 85 % 1024,7 hPa 0,0 l/m 3,7 km/h (1 Bft) O-NO 0,00 h 0,000 mm 0,0 UV-I 0 W/m 9,9 C 12,3 C 5,8 km/h (2 Bft) 99,11 %
29.09.2017 01:00 10,7 C 13,9 C 90 % 1024,4 hPa 0,0 l/m 1,4 km/h (1 Bft) O-NO 0,00 h 0,000 mm 0,0 UV-I 0 W/m 9,1 C 10,7 C 2,8 km/h (1 Bft) 98,53 %
29.09.2017 02:00 9,7 C 13,8 C 93 % 1024,1 hPa 0,0 l/m 2,3 km/h (1 Bft) O 0,00 h 0,000 mm 0,0 UV-I 0 W/m 8,6 C 9,7 C 4,3 km/h (1 Bft) 97,29 %
29.09.2017 03:00 9,0 C 13,3 C 93 % 1024,0 hPa 0,0 l/m 0,3 km/h (0 Bft) O 0,00 h 0,000 mm 0,0 UV-I 0 W/m 8,0 C 9,0 C 0,6 km/h (0 Bft) 97,48 %
29.09.2017 04:00 8,7 C 13,3 C 95 % 1023,9 hPa 0,0 l/m 1,5 km/h (1 Bft) O-NO 0,00 h 0,000 mm 0,0 UV-I 0 W/m 7,9 C 8,7 C 2,6 km/h (1 Bft) 99,14 %
29.09.2017 05:00 7,9 C 13,3 C 95 % 1023,8 hPa 0,0 l/m 0,5 km/h (0 Bft) O-NO 0,00 h 0,000 mm 0,0 UV-I 0 W/m 7,1 C 7,9 C 1,3 km/h (1 Bft) 96,30 %
29.09.2017 06:00 7,4 C 13,3 C 96 % 1023,9 hPa 0,0 l/m 0,2 km/h (0 Bft) O-NO 0,00 h 0,000 mm 0,0 UV-I 6 W/m 6,9 C 7,4 C 0,5 km/h (0 Bft) 98,90 %
29.09.2017 07:00 7,4 C 13,3 C 97 % 1024,1 hPa 0,0 l/m 0,0 km/h (0 Bft) N 0,73 h 0,000 mm 0,0 UV-I 45 W/m 6,9 C 7,4 C 0,1 km/h (0 Bft) 98,40 %
29.09.2017 08:00 9,0 C 13,3 C 97 % 1024,3 hPa 0,0 l/m 0,3 km/h (0 Bft) O-NO 0,90 h 0,025 mm 0,4 UV-I 154 W/m 8,6 C 9,0 C 0,8 km/h (0 Bft) 97,82 %
29.09.2017 09:00 11,1 C 13,3 C 93 % 1024,4 hPa 0,0 l/m 7,0 km/h (2 Bft) O-NO 0,97 h 0,077 mm 0,9 UV-I 300 W/m 10,1 C 10,3 C 11,1 km/h (2 Bft) 97,31 %
29.09.2017 10:00 12,9 C 13,3 C 88 % 1024,2 hPa 0,0 l/m 4,3 km/h (1 Bft) O-NO 1,00 h 0,152 mm 1,6 UV-I 478 W/m 11,0 C 12,8 C 7,4 km/h (2 Bft) 98,87 %
29.09.2017 11:00 15,1 C 13,3 C 83 % 1023,7 hPa 0,0 l/m 3,8 km/h (1 Bft) NO 1,00 h 0,229 mm 2,4 UV-I 574 W/m 12,3 C 15,1 C 7,3 km/h (2 Bft) 98,10 %
29.09.2017 12:00 16,7 C 13,3 C 78 % 1023,2 hPa 0,0 l/m 4,3 km/h (1 Bft) NO 1,00 h 0,304 mm 2,9 UV-I 616 W/m 12,7 C 16,6 C 7,5 km/h (2 Bft) 98,87 %
29.09.2017 13:00 17,9 C 13,3 C 74 % 1022,7 hPa 0,0 l/m 4,7 km/h (1 Bft) NO 1,00 h 0,331 mm 2,9 UV-I 607 W/m 13,3 C 17,9 C 9,1 km/h (2 Bft) 98,10 %
29.09.2017 14:00 19,0 C 13,3 C 71 % 1022,2 hPa 0,0 l/m 7,1 km/h (2 Bft) O-NO 1,00 h 0,355 mm 2,4 UV-I 552 W/m 13,6 C 18,6 C 12,6 km/h (3 Bft) 98,53 %
29.09.2017 15:00 19,6 C 13,7 C 68 % 1021,7 hPa 0,0 l/m 7,3 km/h (2 Bft) NO 1,00 h 0,330 mm 1,6 UV-I 445 W/m 13,5 C 19,0 C 12,3 km/h (3 Bft) 98,15 %
29.09.2017 16:00 19,1 C 13,9 C 68 % 1021,4 hPa 0,0 l/m 6,9 km/h (2 Bft) O 0,43 h 0,280 mm 0,7 UV-I 179 W/m 12,9 C 18,5 C 10,6 km/h (2 Bft) 96,57 %
29.09.2017 17:00 18,3 C 13,9 C 71 % 1021,5 hPa 0,0 l/m 3,5 km/h (1 Bft) O 0,53 h 0,127 mm 0,0 UV-I 136 W/m 13,0 C 18,3 C 5,8 km/h (2 Bft) 97,45 %
29.09.2017 18:00 16,6 C 13,9 C 78 % 1021,4 hPa 0,0 l/m 4,9 km/h (1 Bft) O 0,03 h 0,101 mm 0,0 UV-I 17 W/m 12,7 C 16,6 C 8,1 km/h (2 Bft) 98,78 %
29.09.2017 19:00 14,9 C 13,9 C 83 % 1021,6 hPa 0,0 l/m 2,2 km/h (1 Bft) O-NO 0,00 h 0,026 mm 0,0 UV-I 0 W/m 12,0 C 14,9 C 3,9 km/h (1 Bft) 98,36 %
29.09.2017 20:00 14,5 C 13,9 C 80 % 1021,8 hPa 0,0 l/m 7,9 km/h (2 Bft) O-NO 0,00 h 0,000 mm 0,0 UV-I 0 W/m 11,1 C 13,5 C 12,4 km/h (3 Bft) 97,14 %
29.09.2017 21:00 13,7 C 13,9 C 80 % 1022,0 hPa 0,0 l/m 6,4 km/h (2 Bft) O-NO 0,00 h 0,025 mm 0,0 UV-I 0 W/m 10,3 C 13,5 C 10,2 km/h (2 Bft) 96,96 %
29.09.2017 22:00 13,1 C 13,9 C 81 % 1021,7 hPa 0,0 l/m 8,5 km/h (2 Bft) O-NO 0,00 h 0,026 mm 0,0 UV-I 0 W/m 9,8 C 11,8 C 13,6 km/h (3 Bft) 98,77 %
29.09.2017 23:00 12,5 C 13,9 C 81 % 1021,4 hPa 0,0 l/m 8,0 km/h (2 Bft) O-NO 0,00 h 0,025 mm 0,0 UV-I 0 W/m 9,4 C 11,4 C 12,8 km/h (3 Bft) 97,98 %
30.09.2017 00:00 12,0 C 13,9 C 82 % 1021,2 hPa 0,0 l/m 7,7 km/h (2 Bft) O-NO 0,00 h 0,000 mm 0,0 UV-I 0 W/m 9,0 C 11,0 C 12,0 km/h (2 Bft) 97,35 %
30.09.2017 01:00 10,8 C 13,9 C 86 % 1020,9 hPa 0,0 l/m 4,4 km/h (1 Bft) O-NO 0,00 h 0,025 mm 0,0 UV-I 0 W/m 8,5 C 10,8 C 6,5 km/h (2 Bft) 97,45 %
30.09.2017 02:00 10,1 C 13,5 C 88 % 1020,6 hPa 0,0 l/m 3,7 km/h (1 Bft) O-NO 0,00 h 0,000 mm 0,0 UV-I 0 W/m 8,1 C 10,0 C 6,0 km/h (2 Bft) 99,17 %
30.09.2017 03:00 9,2 C 13,3 C 91 % 1020,3 hPa 0,0 l/m 4,0 km/h (1 Bft) O-NO 0,00 h 0,000 mm 0,0 UV-I 0 W/m 7,7 C 9,2 C 5,8 km/h (2 Bft) 96,95 %
30.09.2017 04:00 8,9 C 13,3 C 91 % 1019,9 hPa 0,0 l/m 3,0 km/h (1 Bft) O-NO 0,00 h 0,000 mm 0,0 UV-I 0 W/m 7,6 C 8,9 C 4,8 km/h (1 Bft) 98,03 %
30.09.2017 05:00 8,1 C 13,3 C 93 % 1019,7 hPa 0,0 l/m 2,7 km/h (1 Bft) O-NO 0,00 h 0,000 mm 0,0 UV-I 0 W/m 7,0 C 8,1 C 3,8 km/h (1 Bft) 97,87 %
30.09.2017 06:00 7,9 C 13,3 C 94 % 1019,5 hPa 0,0 l/m 2,8 km/h (1 Bft) O 0,00 h 0,000 mm 0,0 UV-I 5 W/m 6,9 C 7,9 C 5,1 km/h (1 Bft) 98,52 %
30.09.2017 07:00 7,4 C 13,3 C 95 % 1019,6 hPa 0,0 l/m 0,6 km/h (0 Bft) O-NO 0,80 h 0,000 mm 0,0 UV-I 46 W/m 6,6 C 7,4 C 1,3 km/h (1 Bft) 96,13 %
30.09.2017 08:00 8,8 C 13,3 C 93 % 1019,7 hPa 0,0 l/m 4,9 km/h (1 Bft) O-NO 1,00 h 0,026 mm 0,4 UV-I 180 W/m 7,8 C 8,6 C 7,9 km/h (2 Bft) 99,23 %
30.09.2017 09:00 10,6 C 13,3 C 88 % 1019,4 hPa 0,0 l/m 8,3 km/h (2 Bft) O-NO 1,00 h 0,076 mm 0,9 UV-I 337 W/m 8,8 C 9,3 C 12,7 km/h (3 Bft) 97,70 %
30.09.2017 10:00 12,6 C 13,3 C 84 % 1019,1 hPa 0,0 l/m 8,0 km/h (2 Bft) NO 1,00 h 0,178 mm 1,6 UV-I 477 W/m 9,9 C 11,6 C 12,8 km/h (3 Bft) 98,65 %
30.09.2017 11:00 14,5 C 13,3 C 79 % 1018,6 hPa 0,0 l/m 8,3 km/h (2 Bft) O-NO 1,00 h 0,254 mm 2,4 UV-I 574 W/m 10,9 C 13,4 C 13,7 km/h (3 Bft) 98,44 %
30.09.2017 12:00 16,1 C 13,3 C 74 % 1018,0 hPa 0,0 l/m 7,6 km/h (2 Bft) NO 1,00 h 0,305 mm 2,9 UV-I 619 W/m 11,5 C 15,3 C 13,4 km/h (3 Bft) 97,60 %
30.09.2017 13:00 17,5 C 13,3 C 69 % 1017,1 hPa 0,0 l/m 12,3 km/h (3 Bft) O-NO 1,00 h 0,355 mm 2,9 UV-I 611 W/m 11,8 C 15,2 C 18,4 km/h (3 Bft) 97,23 %
30.09.2017 14:00 18,6 C 13,3 C 66 % 1016,1 hPa 0,0 l/m 14,9 km/h (3 Bft) NO 1,00 h 0,381 mm 2,4 UV-I 553 W/m 12,0 C 15,6 C 22,1 km/h (4 Bft) 95,79 %
30.09.2017 15:00 19,1 C 13,3 C 63 % 1015,6 hPa 0,0 l/m 16,3 km/h (3 Bft) O-NO 1,00 h 0,381 mm 1,6 UV-I 443 W/m 11,9 C 15,9 C 23,8 km/h (4 Bft) 98,49 %
30.09.2017 16:00 19,1 C 13,3 C 62 % 1015,3 hPa 0,0 l/m 15,7 km/h (3 Bft) O-NO 1,00 h 0,330 mm 0,8 UV-I 299 W/m 11,6 C 16,0 C 22,5 km/h (4 Bft) 97,94 %
30.09.2017 17:00 18,2 C 13,3 C 63 % 1015,1 hPa 0,0 l/m 14,6 km/h (3 Bft) O-NO 1,00 h 0,254 mm 0,3 UV-I 145 W/m 11,2 C 15,3 C 22,0 km/h (4 Bft) 99,17 %
30.09.2017 18:00 16,9 C 13,3 C 62 % 1015,2 hPa 0,0 l/m 15,9 km/h (3 Bft) O-NO 0,23 h 0,153 mm 0,0 UV-I 23 W/m 9,7 C 13,3 C 23,5 km/h (4 Bft) 96,87 %
30.09.2017 19:00 15,5 C 13,5 C 62 % 1015,2 hPa 0,0 l/m 17,9 km/h (3 Bft) O-NO 0,00 h 0,101 mm 0,0 UV-I 0 W/m 8,3 C 10,9 C 25,7 km/h (4 Bft) 96,62 %
30.09.2017 20:00 14,2 C 13,9 C 65 % 1015,3 hPa 0,0 l/m 17,1 km/h (3 Bft) O-NO 0,00 h 0,077 mm 0,0 UV-I 0 W/m 7,7 C 9,6 C 25,0 km/h (4 Bft) 97,17 %
30.09.2017 21:00 12,8 C 13,9 C 70 % 1015,6 hPa 0,0 l/m 10,6 km/h (2 Bft) O-NO 0,00 h 0,076 mm 0,0 UV-I 0 W/m 7,5 C 10,6 C 16,6 km/h (3 Bft) 99,01 %
30.09.2017 22:00 11,3 C 13,9 C 77 % 1015,7 hPa 0,0 l/m 6,7 km/h (2 Bft) NO 0,00 h 0,051 mm 0,0 UV-I 0 W/m 7,4 C 10,9 C 10,4 km/h (2 Bft) 97,31 %
30.09.2017 23:00 10,4 C 13,3 C 80 % 1016,0 hPa 0,0 l/m 6,2 km/h (2 Bft) NO 0,00 h 0,025 mm 0,0 UV-I 0 W/m 7,1 C 10,1 C 8,9 km/h (2 Bft) 97,06 %
01.10.2017 00:00 10,0 C 13,3 C 81 % 1016,1 hPa 0,0 l/m 2,6 km/h (1 Bft) O-NO 0,00 h 0,000 mm 0,0 UV-I 0 W/m 6,9 C 10,0 C 4,7 km/h (1 Bft) 97,21 %
01.10.2017 01:00 9,2 C 13,3 C 85 % 1016,4 hPa 0,0 l/m 0,3 km/h (0 Bft) O-NO 0,00 h 0,000 mm 0,0 UV-I 0 W/m 6,8 C 9,2 C 0,9 km/h (0 Bft) 99,57 %
01.10.2017 02:00 8,6 C 13,3 C 89 % 1016,8 hPa 0,0 l/m 1,6 km/h (1 Bft) S-SW 0,00 h 0,000 mm 0,0 UV-I 0 W/m 6,9 C 8,6 C 2,8 km/h (1 Bft) 96,26 %
01.10.2017 03:00 8,4 C 13,3 C 88 % 1017,0 hPa 0,0 l/m 2,0 km/h (1 Bft) O 0,00 h 0,000 mm 0,0 UV-I 0 W/m 6,6 C 8,4 C 3,8 km/h (1 Bft) 98,79 %
01.10.2017 04:00 8,5 C 13,3 C 90 % 1017,4 hPa 0,0 l/m 0,4 km/h (0 Bft) O 0,00 h 0,000 mm 0,0 UV-I 0 W/m 6,9 C 8,5 C 1,0 km/h (0 Bft) 97,80 %
01.10.2017 05:00 9,2 C 13,3 C 89 % 1017,9 hPa 0,0 l/m 0,2 km/h (0 Bft) O 0,00 h 0,000 mm 0,0 UV-I 0 W/m 7,5 C 9,2 C 0,6 km/h (0 Bft) 97,93 %
01.10.2017 06:00 9,0 C 13,3 C 90 % 1018,4 hPa 0,0 l/m 1,1 km/h (0 Bft) NO 0,00 h 0,000 mm 0,0 UV-I 4 W/m 7,4 C 9,0 C 2,4 km/h (1 Bft) 96,42 %
01.10.2017 07:00 9,1 C 13,3 C 89 % 1018,9 hPa 0,0 l/m 0,8 km/h (0 Bft) NO 0,17 h 0,000 mm 0,0 UV-I 35 W/m 7,5 C 9,1 C 2,3 km/h (1 Bft) 99,16 %
01.10.2017 08:00 10,1 C 13,3 C 86 % 1019,6 hPa 0,0 l/m 0,9 km/h (0 Bft) NO 0,93 h 0,025 mm 0,5 UV-I 191 W/m 7,8 C 10,1 C 2,6 km/h (1 Bft) 98,15 %
01.10.2017 09:00 11,9 C 13,3 C 80 % 1020,2 hPa 0,0 l/m 1,4 km/h (1 Bft) N-NW 1,00 h 0,102 mm 0,8 UV-I 365 W/m 8,6 C 11,9 C 3,2 km/h (1 Bft) 98,83 %
01.10.2017 10:00 12,4 C 13,3 C 79 % 1020,7 hPa 0,0 l/m 3,1 km/h (1 Bft) W 0,03 h 0,178 mm 0,6 UV-I 148 W/m 8,8 C 12,3 C 6,3 km/h (2 Bft) 95,26 %
01.10.2017 11:00 12,2 C 13,3 C 81 % 1021,1 hPa 0,0 l/m 5,6 km/h (1 Bft) W-SW 0,00 h 0,076 mm 0,7 UV-I 129 W/m 9,0 C 12,1 C 9,5 km/h (2 Bft) 99,21 %
01.10.2017 12:00 12,7 C 13,3 C 86 % 1021,3 hPa 0,0 l/m 7,0 km/h (2 Bft) W-SW 0,00 h 0,076 mm 0,7 UV-I 118 W/m 10,3 C 12,1 C 11,3 km/h (2 Bft) 98,33 %
01.10.2017 13:00 13,2 C 13,3 C 89 % 1021,3 hPa 0,0 l/m 4,9 km/h (1 Bft) W-SW 0,00 h 0,076 mm 0,8 UV-I 143 W/m 11,4 C 13,1 C 8,3 km/h (2 Bft) 99,52 %
01.10.2017 14:00 13,3 C 13,3 C 93 % 1021,2 hPa 0,0 l/m 2,6 km/h (1 Bft) W-NW 0,00 h 0,077 mm 0,6 UV-I 111 W/m 12,1 C 13,2 C 5,7 km/h (1 Bft) 96,18 %
01.10.2017 15:00 13,7 C 13,3 C 91 % 1021,3 hPa 0,0 l/m 3,2 km/h (1 Bft) W-SW 0,00 h 0,050 mm 0,7 UV-I 153 W/m 12,3 C 13,7 C 6,5 km/h (2 Bft) 99,05 %
01.10.2017 16:00 14,0 C 13,3 C 88 % 1021,1 hPa 0,0 l/m 3,0 km/h (1 Bft) W-SW 0,00 h 0,077 mm 0,5 UV-I 107 W/m 12,1 C 14,0 C 5,6 km/h (1 Bft) 98,55 %
01.10.2017 17:00 13,9 C 13,3 C 89 % 1021,2 hPa 0,0 l/m 2,0 km/h (1 Bft) W 0,00 h 0,050 mm 0,0 UV-I 37 W/m 12,1 C 13,9 C 3,7 km/h (1 Bft) 99,68 %
01.10.2017 18:00 13,6 C 13,3 C 91 % 1021,3 hPa 0,0 l/m 1,1 km/h (1 Bft) SW 0,00 h 0,026 mm 0,0 UV-I 11 W/m 12,2 C 13,6 C 2,8 km/h (1 Bft) 96,52 %
01.10.2017 19:00 13,3 C 13,3 C 93 % 1021,5 hPa 0,0 l/m 0,8 km/h (0 Bft) SW 0,00 h 0,000 mm 0,0 UV-I 0 W/m 12,1 C 13,3 C 2,4 km/h (1 Bft) 98,93 %
01.10.2017 20:00 13,0 C 13,3 C 93 % 1021,7 hPa 0,0 l/m 0,3 km/h (0 Bft) SW 0,00 h 0,000 mm 0,0 UV-I 0 W/m 12,0 C 13,0 C 0,7 km/h (0 Bft) 98,24 %
01.10.2017 21:00 12,8 C 13,3 C 95 % 1022,0 hPa 0,0 l/m 0,2 km/h (0 Bft) SW 0,00 h 0,000 mm 0,0 UV-I 0 W/m 12,0 C 12,8 C 0,9 km/h (0 Bft) 99,54 %
01.10.2017 22:00 12,8 C 13,3 C 94 % 1022,3 hPa 0,0 l/m 0,2 km/h (0 Bft) SW 0,00 h 0,000 mm 0,0 UV-I 0 W/m 11,9 C 12,8 C 0,5 km/h (0 Bft) 95,55 %
01.10.2017 23:00 12,6 C 13,3 C 95 % 1022,1 hPa 0,0 l/m 0,8 km/h (0 Bft) SW 0,00 h 0,000 mm 0,0 UV-I 0 W/m 11,8 C 12,6 C 1,7 km/h (1 Bft) 99,03 %
Min-Datum _ 29.09.17 25.09.17 30.09.17 30.09.17 - 25.09.17 - - - - - 01.10.17 30.09.17 25.09.17 25.09.17
_ Min-Zeit 07:16 04:48 16:18 17:02 - 00:00 - - - - - 03:40 09:08 00:00 00:02
Minimum _ 7,2 C 12,8 C 60 % 1015,1 hPa - 0,0 km/h (0 Bft) - - - - - 6,4 C 6,7 C 0,0 km/h (0 Bft) 11,76 %
Max-Datum _ 28.09.17 28.09.17 28.09.17 28.09.17 28.09.17 26.09.17 - 29.09.17 30.09.17 27.09.17 27.09.17 27.09.17 28.09.17 26.09.17 25.09.17
_ Max-Zeit 17:20 16:14 07:42 10:52 05:56 17:14 - 08:48 14:00 12:52 12:24 17:12 15:36 20:50 00:08
Maximum _ 20,3 C 13,9 C 98 % 1026,0 hPa 0,2 l/m 21,9 km/h
O-NO (4 Bft)
- 0,07 h 0,381 mm 3,3 UV-I 729 W/m 15,1 C 20,2 C 32,2 km/h
O-NO (5 Bft)
100,00 %
Durchschnitt _ 13,2 C 13,4 C 85 % 1021,1 hPa #0,2 l/m 5,6 km/h (1 Bft) O-NO #41:36 h #13,690 mm 1,3 UV-I 227 W/m 10,7 C 12,4 C 9,0 km/h (2 Bft) 98,02 %